createdAt,value
2023-04-12T00:00:48.086Z,1005.35
2023-04-12T00:01:48.134Z,1005.33
2023-04-12T00:02:48.110Z,1005.31
2023-04-12T00:03:48.179Z,1005.23
2023-04-12T00:04:48.088Z,1005.16
2023-04-12T00:05:48.033Z,1005.14
2023-04-12T00:06:48.011Z,1005.15
2023-04-12T00:07:47.987Z,1005.13
2023-04-12T00:08:47.981Z,1005.17
2023-04-12T00:09:47.964Z,1005.16
2023-04-12T00:10:47.934Z,1005.23
2023-04-12T00:11:47.992Z,1005.16
2023-04-12T00:12:47.906Z,1005.08
2023-04-12T00:13:47.924Z,1005.04
2023-04-12T00:14:47.904Z,1005.01
2023-04-12T00:15:47.897Z,1004.99
2023-04-12T00:16:47.896Z,1004.98
2023-04-12T00:17:47.981Z,1005.00
2023-04-12T00:18:47.826Z,1004.91
2023-04-12T00:19:47.855Z,1004.89
2023-04-12T00:20:47.800Z,1004.89
2023-04-12T00:21:47.888Z,1004.88
2023-04-12T00:22:47.810Z,1004.85
2023-04-12T00:23:47.793Z,1004.87
2023-04-12T00:24:47.757Z,1004.82
2023-04-12T00:25:47.783Z,1004.79
2023-04-12T00:26:47.803Z,1004.73
2023-04-12T00:27:47.766Z,1004.76
2023-04-12T00:28:47.703Z,1004.73
2023-04-12T00:29:47.702Z,1004.66
2023-04-12T00:30:47.665Z,1004.65
2023-04-12T00:31:47.799Z,1004.66
2023-04-12T00:32:47.684Z,1004.59
2023-04-12T00:33:47.666Z,1004.60
2023-04-12T00:34:47.664Z,1004.57
2023-04-12T00:35:47.668Z,1004.56
2023-04-12T00:36:47.662Z,1004.51
2023-04-12T00:37:47.638Z,1004.43
2023-04-12T00:38:47.582Z,1004.41
2023-04-12T00:39:47.577Z,1004.43
2023-04-12T00:40:47.559Z,1004.42
2023-04-12T00:41:47.552Z,1004.40
2023-04-12T00:42:47.520Z,1004.34
2023-04-12T00:43:47.519Z,1004.39
2023-04-12T00:44:47.484Z,1004.33
2023-04-12T00:45:47.505Z,1004.28
2023-04-12T00:46:47.566Z,1004.34
2023-04-12T00:47:47.661Z,1004.23
2023-04-12T00:48:47.467Z,1004.15
2023-04-12T00:49:47.466Z,1004.20
2023-04-12T00:50:47.410Z,1004.18
2023-04-12T00:51:47.440Z,1004.17
2023-04-12T00:52:47.426Z,1004.17
2023-04-12T00:53:47.387Z,1004.07
2023-04-12T00:54:47.396Z,1004.04
2023-04-12T00:55:47.346Z,1004.14
2023-04-12T00:56:47.373Z,1004.12
2023-04-12T00:57:47.359Z,1004.11
2023-04-12T00:58:47.351Z,1004.15
2023-04-12T00:59:47.331Z,1004.05
2023-04-12T01:00:47.355Z,1004.03
2023-04-12T01:01:47.343Z,1003.98
2023-04-12T01:02:47.978Z,1004.03
2023-04-12T01:03:47.368Z,1003.93
2023-04-12T01:04:47.249Z,1003.87
2023-04-12T01:05:47.222Z,1003.88
2023-04-12T01:06:47.227Z,1003.85
2023-04-12T01:07:47.241Z,1003.86
2023-04-12T01:08:47.194Z,1003.84
2023-04-12T01:09:47.198Z,1003.80
2023-04-12T01:10:47.177Z,1003.79
2023-04-12T01:11:47.154Z,1003.77
2023-04-12T01:12:47.147Z,1003.78
2023-04-12T01:13:47.154Z,1003.73
2023-04-12T01:14:47.127Z,1003.70
2023-04-12T01:15:54.677Z,1003.65
2023-04-12T01:16:47.121Z,1003.66
2023-04-12T01:17:47.147Z,1003.59
2023-04-12T01:18:47.048Z,1003.63
2023-04-12T01:19:47.053Z,1003.53
2023-04-12T01:20:47.011Z,1003.57
2023-04-12T01:21:47.038Z,1003.61
2023-04-12T01:22:46.982Z,1003.59
2023-04-12T01:23:47.008Z,1003.55
2023-04-12T01:24:46.988Z,1003.55
2023-04-12T01:25:47.019Z,1003.55
2023-04-12T01:26:47.026Z,1003.56
2023-04-12T01:27:46.989Z,1003.54
2023-04-12T01:28:46.937Z,1003.50
2023-04-12T01:29:46.942Z,1003.44
2023-04-12T01:30:46.889Z,1003.46
2023-04-12T01:31:46.977Z,1003.44
2023-04-12T01:32:46.908Z,1003.38
2023-04-12T01:33:46.894Z,1003.35
2023-04-12T01:34:46.836Z,1003.37
2023-04-12T01:35:46.906Z,1003.26
2023-04-12T01:36:46.807Z,1003.28
2023-04-12T01:37:46.853Z,1003.28
2023-04-12T01:38:46.804Z,1003.21
2023-04-12T01:39:46.805Z,1003.28
2023-04-12T01:40:46.766Z,1003.25
2023-04-12T01:41:46.819Z,1003.25
2023-04-12T01:42:46.754Z,1003.15
2023-04-12T01:43:46.726Z,1003.17
2023-04-12T01:44:46.706Z,1003.15
2023-04-12T01:45:46.773Z,1003.16
2023-04-12T01:46:46.711Z,1003.09
2023-04-12T01:47:46.722Z,1003.03
2023-04-12T01:48:46.693Z,1002.97
2023-04-12T01:49:46.661Z,1002.98
2023-04-12T01:50:46.661Z,1002.91
2023-04-12T01:51:46.679Z,1002.91
2023-04-12T01:52:46.640Z,1002.83
2023-04-12T01:53:46.647Z,1002.86
2023-04-12T01:54:46.576Z,1002.82
2023-04-12T01:55:46.566Z,1002.79
2023-04-12T01:56:46.595Z,1002.79
2023-04-12T01:57:46.556Z,1002.79
2023-04-12T01:58:46.525Z,1002.81
2023-04-12T01:59:46.568Z,1002.78
2023-04-12T02:00:46.543Z,1002.74
2023-04-12T02:01:46.593Z,1002.73
2023-04-12T02:02:46.651Z,1002.72
2023-04-12T02:03:46.605Z,1002.67
2023-04-12T02:04:46.448Z,1002.64
2023-04-12T02:05:46.468Z,1002.66
2023-04-12T02:06:46.448Z,1002.64
2023-04-12T02:07:46.432Z,1002.54
2023-04-12T02:08:46.460Z,1002.48
2023-04-12T02:09:46.393Z,1002.46
2023-04-12T02:10:46.412Z,1002.37
2023-04-12T02:11:46.407Z,1002.42
2023-04-12T02:12:46.374Z,1002.32
2023-04-12T02:13:46.400Z,1002.34
2023-04-12T02:14:46.347Z,1002.29
2023-04-12T02:15:46.350Z,1002.23
2023-04-12T02:16:46.412Z,1002.25
2023-04-12T02:17:46.350Z,1002.22
2023-04-12T02:18:46.293Z,1002.18
2023-04-12T02:19:46.322Z,1002.17
2023-04-12T02:20:46.230Z,1002.13
2023-04-12T02:21:46.261Z,1002.21
2023-04-12T02:22:46.206Z,1002.23
2023-04-12T02:23:46.265Z,1002.24
2023-04-12T02:24:46.192Z,1002.27
2023-04-12T02:25:46.181Z,1002.27
2023-04-12T02:26:46.244Z,1002.20
2023-04-12T02:27:46.186Z,1002.14
2023-04-12T02:28:46.211Z,1002.10
2023-04-12T02:29:46.158Z,1002.07
2023-04-12T02:30:46.122Z,1002.04
2023-04-12T02:31:46.144Z,1002.05
2023-04-12T02:32:46.111Z,1002.05
2023-04-12T02:33:46.101Z,1002.02
2023-04-12T02:34:46.045Z,1002.02
2023-04-12T02:35:46.077Z,1001.89
2023-04-12T02:36:46.048Z,1001.88
2023-04-12T02:37:46.020Z,1001.84
2023-04-12T02:38:46.076Z,1001.80
2023-04-12T02:39:46.037Z,1001.82
2023-04-12T02:40:45.971Z,1001.84
2023-04-12T02:41:45.981Z,1001.80
2023-04-12T02:42:45.978Z,1001.87
2023-04-12T02:43:46.001Z,1001.76
2023-04-12T02:44:45.977Z,1001.79
2023-04-12T02:45:45.985Z,1001.72
2023-04-12T02:46:45.968Z,1001.72
2023-04-12T02:47:45.974Z,1001.65
2023-04-12T02:48:45.941Z,1001.61
2023-04-12T02:49:45.913Z,1001.49
2023-04-12T02:50:45.880Z,1001.48
2023-04-12T02:51:45.847Z,1001.36
2023-04-12T02:52:45.847Z,1001.35
2023-04-12T02:53:45.828Z,1001.33
2023-04-12T02:54:45.793Z,1001.27
2023-04-12T02:55:45.801Z,1001.29
2023-04-12T02:56:45.798Z,1001.24
2023-04-12T02:57:45.805Z,1001.19
2023-04-12T02:58:45.821Z,1001.16
2023-04-12T02:59:45.785Z,1001.18
2023-04-12T03:00:45.714Z,1001.14
2023-04-12T03:01:45.840Z,1001.11
2023-04-12T03:02:45.797Z,1001.14
2023-04-12T03:03:45.734Z,1001.10
2023-04-12T03:04:45.691Z,1001.04
2023-04-12T03:05:45.687Z,1001.05
2023-04-12T03:06:45.682Z,1001.04
2023-04-12T03:07:45.650Z,1001.02
2023-04-12T03:08:45.643Z,1000.97
2023-04-12T03:09:45.681Z,1000.94
2023-04-12T03:10:45.588Z,1000.89
2023-04-12T03:11:45.568Z,1000.91
2023-04-12T03:12:45.606Z,1000.85
2023-04-12T03:13:45.571Z,1000.87
2023-04-12T03:14:45.582Z,1000.85
2023-04-12T03:15:45.547Z,1000.76
2023-04-12T03:16:45.535Z,1000.74
2023-04-12T03:17:45.565Z,1000.73
2023-04-12T03:18:45.520Z,1000.71
2023-04-12T03:19:45.521Z,1000.66
2023-04-12T03:20:47.714Z,1000.64
2023-04-12T03:21:45.465Z,1000.64
2023-04-12T03:22:45.461Z,1000.54
2023-04-12T03:23:45.407Z,1000.53
2023-04-12T03:24:45.428Z,1000.48
2023-04-12T03:25:45.422Z,1000.45
2023-04-12T03:26:45.385Z,1000.32
2023-04-12T03:27:45.388Z,1000.35
2023-04-12T03:28:45.377Z,1000.31
2023-04-12T03:29:45.325Z,1000.35
2023-04-12T03:30:45.455Z,1000.32
2023-04-12T03:31:45.306Z,1000.30
2023-04-12T03:32:45.411Z,1000.19
2023-04-12T03:33:45.311Z,1000.24
2023-04-12T03:34:45.303Z,1000.19
2023-04-12T03:35:45.421Z,1000.26
2023-04-12T03:36:45.245Z,1000.22
2023-04-12T03:37:45.229Z,1000.16
2023-04-12T03:38:45.313Z,1000.15
2023-04-12T03:39:45.197Z,1000.07
2023-04-12T03:40:45.259Z,1000.02
2023-04-12T03:41:45.213Z,999.99
2023-04-12T03:42:45.300Z,999.92
2023-04-12T03:43:45.172Z,999.84
2023-04-12T03:44:45.171Z,999.88
2023-04-12T03:45:45.153Z,999.85
2023-04-12T03:46:45.246Z,999.85
2023-04-12T03:47:45.096Z,999.82
2023-04-12T03:48:45.111Z,999.78
2023-04-12T03:49:51.392Z,999.83
2023-04-12T03:50:46.127Z,999.79
2023-04-12T03:51:45.077Z,999.85
2023-04-12T03:52:45.061Z,999.78
2023-04-12T03:53:45.044Z,999.70
2023-04-12T03:54:45.054Z,999.70
2023-04-12T03:55:45.030Z,999.67
2023-04-12T03:56:46.294Z,999.62
2023-04-12T03:57:44.966Z,999.68
2023-04-12T03:58:44.952Z,999.60
2023-04-12T03:59:44.944Z,999.59
2023-04-12T04:00:44.976Z,999.47
2023-04-12T04:01:44.925Z,999.48
2023-04-12T04:02:45.100Z,999.40
2023-04-12T04:03:45.959Z,999.47
2023-04-12T04:04:44.959Z,999.48
2023-04-12T04:05:44.876Z,999.45
2023-04-12T04:06:44.882Z,999.42
2023-04-12T04:07:44.860Z,999.44
2023-04-12T04:08:44.866Z,999.37
2023-04-12T04:09:44.823Z,999.39
2023-04-12T04:10:44.860Z,999.33
2023-04-12T04:11:44.793Z,999.29
2023-04-12T04:12:44.806Z,999.30
2023-04-12T04:13:44.776Z,999.27
2023-04-12T04:14:44.800Z,999.30
2023-04-12T04:15:44.743Z,999.21
2023-04-12T04:16:44.844Z,999.29
2023-04-12T04:17:44.734Z,999.23
2023-04-12T04:18:44.714Z,999.23
2023-04-12T04:19:44.699Z,999.19
2023-04-12T04:20:44.698Z,999.25
2023-04-12T04:21:44.644Z,999.17
2023-04-12T04:22:44.669Z,999.09
2023-04-12T04:23:44.640Z,999.12
2023-04-12T04:24:44.672Z,999.00
2023-04-12T04:25:44.640Z,998.99
2023-04-12T04:26:44.622Z,999.00
2023-04-12T04:27:44.567Z,998.97
2023-04-12T04:28:44.645Z,999.03
2023-04-12T04:29:44.571Z,998.95
2023-04-12T04:30:44.553Z,998.98
2023-04-12T04:31:44.668Z,998.94
2023-04-12T04:32:44.599Z,998.92
2023-04-12T04:33:44.490Z,998.95
2023-04-12T04:34:44.542Z,998.92
2023-04-12T04:35:44.513Z,998.89
2023-04-12T04:36:44.490Z,998.81
2023-04-12T04:37:44.456Z,998.81
2023-04-12T04:38:44.460Z,998.79
2023-04-12T04:39:44.450Z,998.82
2023-04-12T04:40:44.434Z,998.74
2023-04-12T04:41:44.396Z,998.74
2023-04-12T04:42:44.378Z,998.80
2023-04-12T04:43:44.407Z,998.72
2023-04-12T04:44:44.376Z,998.81
2023-04-12T04:45:44.399Z,998.80
2023-04-12T04:46:44.358Z,998.72
2023-04-12T04:47:44.386Z,998.74
2023-04-12T04:48:44.381Z,998.67
2023-04-12T04:49:44.315Z,998.66
2023-04-12T04:50:44.283Z,998.72
2023-04-12T04:51:44.342Z,998.79
2023-04-12T04:52:44.251Z,998.76
2023-04-12T04:53:44.250Z,998.66
2023-04-12T04:54:44.255Z,998.71
2023-04-12T04:55:44.233Z,998.68
2023-04-12T04:56:44.230Z,998.53
2023-04-12T04:57:44.194Z,998.57
2023-04-12T04:58:44.179Z,998.57
2023-04-12T04:59:44.176Z,998.60
2023-04-12T05:00:44.153Z,998.55
2023-04-12T05:01:44.446Z,998.60
2023-04-12T05:02:44.279Z,998.57
2023-04-12T05:03:44.146Z,998.60
2023-04-12T05:04:44.132Z,998.56
2023-04-12T05:05:44.063Z,998.56
2023-04-12T05:06:44.066Z,998.52
2023-04-12T05:07:44.047Z,998.49
2023-04-12T05:08:44.078Z,998.50
2023-04-12T05:09:44.070Z,998.51
2023-04-12T05:10:44.043Z,998.42
2023-04-12T05:11:44.029Z,998.41
2023-04-12T05:12:44.016Z,998.42
2023-04-12T05:13:43.998Z,998.45
2023-04-12T05:14:48.120Z,998.37
2023-04-12T05:15:44.967Z,998.34
2023-04-12T05:16:44.027Z,998.28
2023-04-12T05:17:43.925Z,998.36
2023-04-12T05:18:43.908Z,998.34
2023-04-12T05:19:43.936Z,998.34
2023-04-12T05:20:43.880Z,998.28
2023-04-12T05:21:43.910Z,998.27
2023-04-12T05:22:43.899Z,998.32
2023-04-12T05:23:43.822Z,998.20
2023-04-12T05:24:43.874Z,998.21
2023-04-12T05:25:43.834Z,998.18
2023-04-12T05:26:43.864Z,998.21
2023-04-12T05:27:43.813Z,998.19
2023-04-12T05:28:43.821Z,998.15
2023-04-12T05:29:43.754Z,998.16
2023-04-12T05:30:43.796Z,998.21
2023-04-12T05:31:43.753Z,998.16
2023-04-12T05:32:43.804Z,998.15
2023-04-12T05:33:43.724Z,998.13
2023-04-12T05:34:43.734Z,998.08
2023-04-12T05:35:43.767Z,998.09
2023-04-12T05:36:43.670Z,998.12
2023-04-12T05:37:43.679Z,998.10
2023-04-12T05:38:43.672Z,998.08
2023-04-12T05:39:43.648Z,997.98
2023-04-12T05:40:43.642Z,997.99
2023-04-12T05:41:43.614Z,998.03
2023-04-12T05:42:43.626Z,997.94
2023-04-12T05:43:43.566Z,997.93
2023-04-12T05:44:43.576Z,997.98
2023-04-12T05:45:43.708Z,998.04
2023-04-12T05:46:43.782Z,997.95
2023-04-12T05:47:43.588Z,997.93
2023-04-12T05:48:43.516Z,997.94
2023-04-12T05:49:43.548Z,997.86
2023-04-12T05:50:43.528Z,997.92
2023-04-12T05:51:43.520Z,997.97
2023-04-12T05:52:43.561Z,997.87
2023-04-12T05:53:43.485Z,997.86
2023-04-12T05:54:43.449Z,997.82
2023-04-12T05:55:43.432Z,997.85
2023-04-12T05:56:43.458Z,997.91
2023-04-12T05:57:43.472Z,997.88
2023-04-12T05:58:43.428Z,997.90
2023-04-12T05:59:43.387Z,997.84
2023-04-12T06:00:43.385Z,997.83
2023-04-12T06:01:43.398Z,997.80
2023-04-12T06:02:43.548Z,997.82
2023-04-12T06:03:43.514Z,997.74
2023-04-12T06:04:50.711Z,997.77
2023-04-12T06:05:44.342Z,997.76
2023-04-12T06:06:43.325Z,997.75
2023-04-12T06:07:43.303Z,997.74
2023-04-12T06:08:43.268Z,997.69
2023-04-12T06:09:43.280Z,997.64
2023-04-12T06:10:43.265Z,997.60
2023-04-12T06:11:43.211Z,997.64
2023-04-12T06:12:43.213Z,997.63
2023-04-12T06:13:43.224Z,997.58
2023-04-12T06:14:43.220Z,997.61
2023-04-12T06:15:43.175Z,997.61
2023-04-12T06:16:43.199Z,997.60
2023-04-12T06:17:43.148Z,997.58
2023-04-12T06:18:43.130Z,997.64
2023-04-12T06:19:43.156Z,997.57
2023-04-12T06:20:43.164Z,997.56
2023-04-12T06:21:43.090Z,997.51
2023-04-12T06:22:43.094Z,997.50
2023-04-12T06:23:43.060Z,997.46
2023-04-12T06:24:43.078Z,997.48
2023-04-12T06:25:43.027Z,997.46
2023-04-12T06:26:43.079Z,997.47
2023-04-12T06:27:43.005Z,997.48
2023-04-12T06:28:43.022Z,997.34
2023-04-12T06:29:43.025Z,997.42
2023-04-12T06:30:43.008Z,997.43
2023-04-12T06:31:42.990Z,997.38
2023-04-12T06:32:43.008Z,997.32
2023-04-12T06:33:42.917Z,997.30
2023-04-12T06:34:42.937Z,997.29
2023-04-12T06:35:42.907Z,997.37
2023-04-12T06:36:42.938Z,997.29
2023-04-12T06:37:42.871Z,997.29
2023-04-12T06:38:42.863Z,997.25
2023-04-12T06:39:42.885Z,997.26
2023-04-12T06:40:42.833Z,997.23
2023-04-12T06:41:42.820Z,997.22
2023-04-12T06:42:42.873Z,997.22
2023-04-12T06:43:42.772Z,997.14
2023-04-12T06:44:42.810Z,997.21
2023-04-12T06:45:42.810Z,997.22
2023-04-12T06:46:42.879Z,997.13
2023-04-12T06:47:42.840Z,997.22
2023-04-12T06:48:42.730Z,997.19
2023-04-12T06:49:42.882Z,997.18
2023-04-12T06:50:42.697Z,997.11
2023-04-12T06:51:42.702Z,997.11
2023-04-12T06:52:42.716Z,997.08
2023-04-12T06:53:42.693Z,997.10
2023-04-12T06:54:42.639Z,996.94
2023-04-12T06:55:42.671Z,996.94
2023-04-12T06:56:42.656Z,996.89
2023-04-12T06:57:42.609Z,996.94
2023-04-12T06:58:42.622Z,996.95
2023-04-12T06:59:42.572Z,996.86
2023-04-12T07:00:42.647Z,996.80
2023-04-12T07:01:43.497Z,996.81
2023-04-12T07:02:42.790Z,996.75
2023-04-12T07:03:42.638Z,996.80
2023-04-12T07:04:42.541Z,996.73
2023-04-12T07:05:42.482Z,996.76
2023-04-12T07:06:42.511Z,996.68
2023-04-12T07:07:42.494Z,996.72
2023-04-12T07:08:42.486Z,996.70
2023-04-12T07:09:42.431Z,996.74
2023-04-12T07:10:42.484Z,996.77
2023-04-12T07:11:42.428Z,996.74
2023-04-12T07:12:42.448Z,996.73
2023-04-12T07:13:42.426Z,996.65
2023-04-12T07:14:44.616Z,996.67
2023-04-12T07:15:42.425Z,996.61
2023-04-12T07:16:42.492Z,996.60
2023-04-12T07:17:42.484Z,996.56
2023-04-12T07:18:42.362Z,996.48
2023-04-12T07:19:42.408Z,996.48
2023-04-12T07:20:42.317Z,996.42
2023-04-12T07:21:42.331Z,996.48
2023-04-12T07:22:42.380Z,996.45
2023-04-12T07:23:42.290Z,996.44
2023-04-12T07:24:42.243Z,996.41
2023-04-12T07:25:42.340Z,996.45
2023-04-12T07:26:43.297Z,996.34
2023-04-12T07:27:42.228Z,996.38
2023-04-12T07:28:42.249Z,996.36
2023-04-12T07:29:42.219Z,996.33
2023-04-12T07:30:42.200Z,996.33
2023-04-12T07:31:42.248Z,996.34
2023-04-12T07:32:42.240Z,996.34
2023-04-12T07:33:43.349Z,996.29
2023-04-12T07:34:42.204Z,996.23
2023-04-12T07:35:42.121Z,996.25
2023-04-12T07:36:42.100Z,996.24
2023-04-12T07:37:42.190Z,996.19
2023-04-12T07:38:42.082Z,996.18
2023-04-12T07:39:42.180Z,996.14
2023-04-12T07:40:42.084Z,996.12
2023-04-12T07:41:42.077Z,996.13
2023-04-12T07:42:42.054Z,996.12
2023-04-12T07:43:42.063Z,996.15
2023-04-12T07:44:42.013Z,996.10
2023-04-12T07:45:42.052Z,996.16
2023-04-12T07:46:42.040Z,996.09
2023-04-12T07:47:42.043Z,996.00
2023-04-12T07:48:41.923Z,996.02
2023-04-12T07:49:41.966Z,996.00
2023-04-12T07:50:41.904Z,996.01
2023-04-12T07:51:41.935Z,995.95
2023-04-12T07:52:41.913Z,996.01
2023-04-12T07:53:41.869Z,995.94
2023-04-12T07:54:41.851Z,996.02
2023-04-12T07:55:41.853Z,995.99
2023-04-12T07:56:41.818Z,995.97
2023-04-12T07:57:41.874Z,995.99
2023-04-12T07:58:41.823Z,996.02
2023-04-12T07:59:41.817Z,996.05
2023-04-12T08:00:41.802Z,996.03
2023-04-12T08:01:41.816Z,996.05
2023-04-12T08:02:41.945Z,996.11
2023-04-12T08:03:41.830Z,996.13
2023-04-12T08:04:41.758Z,996.10
2023-04-12T08:05:41.750Z,996.10
2023-04-12T08:06:41.692Z,996.06
2023-04-12T08:07:41.726Z,996.16
2023-04-12T08:08:41.715Z,996.10
2023-04-12T08:09:41.663Z,996.06
2023-04-12T08:10:41.651Z,996.05
2023-04-12T08:11:41.653Z,996.04
2023-04-12T08:12:41.606Z,995.99
2023-04-12T08:13:41.660Z,995.99
2023-04-12T08:14:41.582Z,995.96
2023-04-12T08:15:41.626Z,995.99
2023-04-12T08:16:41.579Z,996.01
2023-04-12T08:17:41.582Z,995.98
2023-04-12T08:18:41.636Z,995.94
2023-04-12T08:19:41.599Z,995.93
2023-04-12T08:20:41.538Z,995.98
2023-04-12T08:21:41.500Z,995.95
2023-04-12T08:22:41.482Z,996.00
2023-04-12T08:23:41.480Z,995.97
2023-04-12T08:24:41.532Z,996.03
2023-04-12T08:25:41.471Z,995.93
2023-04-12T08:26:41.453Z,995.97
2023-04-12T08:27:41.465Z,995.92
2023-04-12T08:28:41.428Z,995.91
2023-04-12T08:29:41.398Z,995.90
2023-04-12T08:30:41.402Z,995.84
2023-04-12T08:31:41.497Z,995.83
2023-04-12T08:32:41.380Z,995.78
2023-04-12T08:33:41.387Z,995.79
2023-04-12T08:34:42.042Z,995.78
2023-04-12T08:35:41.391Z,995.73
2023-04-12T08:36:41.325Z,995.75
2023-04-12T08:37:41.337Z,995.82
2023-04-12T08:38:45.818Z,995.84
2023-04-12T08:39:42.317Z,995.84
2023-04-12T08:40:41.259Z,995.71
2023-04-12T08:41:41.243Z,995.78
2023-04-12T08:42:41.220Z,995.76
2023-04-12T08:43:41.249Z,995.77
2023-04-12T08:44:41.229Z,995.78
2023-04-12T08:45:41.224Z,995.83
2023-04-12T08:46:41.209Z,995.80
2023-04-12T08:47:41.209Z,995.83
2023-04-12T08:48:41.215Z,995.84
2023-04-12T08:49:41.168Z,995.87
2023-04-12T08:50:41.140Z,995.90
2023-04-12T08:51:41.147Z,995.85
2023-04-12T08:52:41.134Z,995.89
2023-04-12T08:53:41.145Z,995.81
2023-04-12T08:54:41.092Z,995.84
2023-04-12T08:55:41.087Z,995.83
2023-04-12T08:56:41.054Z,995.81
2023-04-12T08:57:41.037Z,995.78
2023-04-12T08:58:41.047Z,995.78
2023-04-12T08:59:41.011Z,995.71
2023-04-12T09:00:41.025Z,995.78
2023-04-12T09:01:41.146Z,995.78
2023-04-12T09:02:41.145Z,995.75
2023-04-12T09:03:41.170Z,995.74
2023-04-12T09:04:41.017Z,995.73
2023-04-12T09:05:41.034Z,995.79
2023-04-12T09:06:40.948Z,995.78
2023-04-12T09:07:40.955Z,995.78
2023-04-12T09:08:40.891Z,995.75
2023-04-12T09:09:40.929Z,995.69
2023-04-12T09:10:40.937Z,995.66
2023-04-12T09:11:40.941Z,995.69
2023-04-12T09:12:40.891Z,995.69
2023-04-12T09:13:40.840Z,995.70
2023-04-12T09:14:40.920Z,995.70
2023-04-12T09:15:40.819Z,995.69
2023-04-12T09:16:40.867Z,995.65
2023-04-12T09:17:40.828Z,995.68
2023-04-12T09:18:40.785Z,995.67
2023-04-12T09:19:40.791Z,995.66
2023-04-12T09:20:40.734Z,995.63
2023-04-12T09:21:40.742Z,995.70
2023-04-12T09:22:40.725Z,995.67
2023-04-12T09:23:40.724Z,995.70
2023-04-12T09:24:40.724Z,995.61
2023-04-12T09:25:40.715Z,995.66
2023-04-12T09:26:40.642Z,995.56
2023-04-12T09:27:40.684Z,995.61
2023-04-12T09:28:40.653Z,995.57
2023-04-12T09:29:40.616Z,995.52
2023-04-12T09:30:40.639Z,995.57
2023-04-12T09:31:40.683Z,995.64
2023-04-12T09:32:40.641Z,995.57
2023-04-12T09:33:40.602Z,995.55
2023-04-12T09:34:40.595Z,995.58
2023-04-12T09:35:40.606Z,995.48
2023-04-12T09:36:40.613Z,995.48
2023-04-12T09:37:40.565Z,995.47
2023-04-12T09:38:40.538Z,995.51
2023-04-12T09:39:40.821Z,995.52
2023-04-12T09:40:40.502Z,995.43
2023-04-12T09:41:40.482Z,995.49
2023-04-12T09:42:40.467Z,995.48
2023-04-12T09:43:40.466Z,995.50
2023-04-12T09:44:40.414Z,995.49
2023-04-12T09:45:40.456Z,995.51
2023-04-12T09:46:40.483Z,995.46
2023-04-12T09:47:40.475Z,995.44
2023-04-12T09:48:40.397Z,995.45
2023-04-12T09:49:40.414Z,995.50
2023-04-12T09:50:40.393Z,995.46
2023-04-12T09:51:40.373Z,995.53
2023-04-12T09:52:40.429Z,995.57
2023-04-12T09:53:40.325Z,995.56
2023-04-12T09:54:40.334Z,995.50
2023-04-12T09:55:40.353Z,995.47
2023-04-12T09:56:40.286Z,995.45
2023-04-12T09:57:40.261Z,995.48
2023-04-12T09:58:40.280Z,995.42
2023-04-12T09:59:40.278Z,995.37
2023-04-12T10:00:40.246Z,995.37
2023-04-12T10:01:40.561Z,995.34
2023-04-12T10:02:40.445Z,995.28
2023-04-12T10:03:40.279Z,995.25
2023-04-12T10:04:40.309Z,995.24
2023-04-12T10:05:40.320Z,995.29
2023-04-12T10:06:40.153Z,995.23
2023-04-12T10:07:40.865Z,995.22
2023-04-12T10:08:40.240Z,995.21
2023-04-12T10:09:40.164Z,995.21
2023-04-12T10:10:40.078Z,995.21
2023-04-12T10:11:40.106Z,995.27
2023-04-12T10:12:40.449Z,995.24
2023-04-12T10:13:40.076Z,995.23
2023-04-12T10:14:41.752Z,995.17
2023-04-12T10:15:40.243Z,995.21
2023-04-12T10:16:40.179Z,995.15
2023-04-12T10:17:40.131Z,995.14
2023-04-12T10:18:40.002Z,995.09
2023-04-12T10:19:40.024Z,995.16
2023-04-12T10:20:39.944Z,995.13
2023-04-12T10:21:39.998Z,995.13
2023-04-12T10:22:39.951Z,995.10
2023-04-12T10:23:39.964Z,995.09
2023-04-12T10:24:39.966Z,995.10
2023-04-12T10:25:39.880Z,995.12
2023-04-12T10:26:39.866Z,995.11
2023-04-12T10:27:39.876Z,995.09
2023-04-12T10:28:39.885Z,995.09
2023-04-12T10:29:39.832Z,995.08
2023-04-12T10:30:39.815Z,995.10
2023-04-12T10:31:39.902Z,995.04
2023-04-12T10:32:39.842Z,995.07
2023-04-12T10:33:39.814Z,995.05
2023-04-12T10:34:39.793Z,995.07
2023-04-12T10:35:39.805Z,995.07
2023-04-12T10:36:39.766Z,995.05
2023-04-12T10:37:39.767Z,995.04
2023-04-12T10:38:39.707Z,995.05
2023-04-12T10:39:39.737Z,995.05
2023-04-12T10:40:39.695Z,995.05
2023-04-12T10:41:39.716Z,995.07
2023-04-12T10:42:39.695Z,995.04
2023-04-12T10:43:39.696Z,995.03
2023-04-12T10:44:39.663Z,995.06
2023-04-12T10:45:39.674Z,995.07
2023-04-12T10:46:40.127Z,995.09
2023-04-12T10:47:39.699Z,995.15
2023-04-12T10:48:39.630Z,995.20
2023-04-12T10:49:39.639Z,995.25
2023-04-12T10:50:39.628Z,995.38
2023-04-12T10:51:39.591Z,995.41
2023-04-12T10:52:39.583Z,995.42
2023-04-12T10:53:39.558Z,995.47
2023-04-12T10:54:39.668Z,995.52
2023-04-12T10:55:39.490Z,995.52
2023-04-12T10:56:39.570Z,995.51
2023-04-12T10:57:39.578Z,995.54
2023-04-12T10:58:39.490Z,995.51
2023-04-12T10:59:47.270Z,995.56
2023-04-12T11:00:40.537Z,995.57
2023-04-12T11:01:39.911Z,995.55
2023-04-12T11:02:39.635Z,995.56
2023-04-12T11:03:39.586Z,995.54
2023-04-12T11:04:40.937Z,995.55
2023-04-12T11:05:39.553Z,995.57
2023-04-12T11:06:39.638Z,995.54
2023-04-12T11:07:39.406Z,995.58
2023-04-12T11:08:39.328Z,995.59
2023-04-12T11:09:39.375Z,995.55
2023-04-12T11:10:39.345Z,995.56
2023-04-12T11:11:39.337Z,995.48
2023-04-12T11:12:39.344Z,995.50
2023-04-12T11:13:39.337Z,995.42
2023-04-12T11:14:39.301Z,995.53
2023-04-12T11:15:39.288Z,995.45
2023-04-12T11:16:39.273Z,995.47
2023-04-12T11:17:39.317Z,995.51
2023-04-12T11:18:39.351Z,995.47
2023-04-12T11:19:39.226Z,995.49
2023-04-12T11:20:39.189Z,995.43
2023-04-12T11:21:39.190Z,995.44
2023-04-12T11:22:39.168Z,995.48
2023-04-12T11:23:39.174Z,995.46
2023-04-12T11:24:39.126Z,995.51
2023-04-12T11:25:39.183Z,995.45
2023-04-12T11:26:39.115Z,995.39
2023-04-12T11:27:39.102Z,995.41
2023-04-12T11:28:39.095Z,995.39
2023-04-12T11:29:39.055Z,995.46
2023-04-12T11:30:39.063Z,995.31
2023-04-12T11:31:39.093Z,995.43
2023-04-12T11:32:39.089Z,995.44
2023-04-12T11:33:39.037Z,995.45
2023-04-12T11:34:39.030Z,995.46
2023-04-12T11:35:39.008Z,995.42
2023-04-12T11:36:38.981Z,995.41
2023-04-12T11:37:38.970Z,995.45
2023-04-12T11:38:38.942Z,995.44
2023-04-12T11:39:38.916Z,995.47
2023-04-12T11:40:38.927Z,995.44
2023-04-12T11:41:38.936Z,995.47
2023-04-12T11:42:39.000Z,995.46
2023-04-12T11:43:39.093Z,995.41
2023-04-12T11:44:54.532Z,995.47
2023-04-12T11:45:39.850Z,995.44
2023-04-12T11:46:38.846Z,995.42
2023-04-12T11:47:38.820Z,995.46
2023-04-12T11:48:39.095Z,995.35
2023-04-12T11:49:38.805Z,995.46
2023-04-12T11:50:38.806Z,995.42
2023-04-12T11:51:38.870Z,995.50
2023-04-12T11:52:38.805Z,995.45
2023-04-12T11:53:38.751Z,995.40
2023-04-12T11:54:38.768Z,995.46
2023-04-12T11:55:38.753Z,995.47
2023-04-12T11:56:38.737Z,995.35
2023-04-12T11:57:38.732Z,995.37
2023-04-12T11:58:38.720Z,995.40
2023-04-12T11:59:38.680Z,995.43
2023-04-12T12:00:38.670Z,995.48
2023-04-12T12:01:38.728Z,995.44
2023-04-12T12:02:46.513Z,995.50
2023-04-12T12:03:39.742Z,995.49
2023-04-12T12:04:38.842Z,995.42
2023-04-12T12:05:39.150Z,995.44
2023-04-12T12:06:38.775Z,995.47
2023-04-12T12:07:38.572Z,995.53
2023-04-12T12:08:38.544Z,995.47
2023-04-12T12:09:38.582Z,995.49
2023-04-12T12:10:51.939Z,995.48
2023-04-12T12:11:39.525Z,995.54
2023-04-12T12:12:38.486Z,995.54
2023-04-12T12:13:38.904Z,995.55
2023-04-12T12:14:38.460Z,995.55
2023-04-12T12:15:38.464Z,995.50
2023-04-12T12:16:38.475Z,995.39
2023-04-12T12:17:38.454Z,995.42
2023-04-12T12:18:38.541Z,995.51
2023-04-12T12:19:38.401Z,995.47
2023-04-12T12:20:38.382Z,995.56
2023-04-12T12:21:38.377Z,995.50